sensor_id;sensor_type;location;lat;lon;timestamp;pressure;altitude;pressure_sealevel;temperature;humidity
22930;BME280;11630;42.660;23.292;2023-04-19T00:01:27;68786.50;;;11.32;100.00
22930;BME280;11630;42.660;23.292;2023-04-19T00:03:58;68775.09;;;11.24;100.00
22930;BME280;11630;42.660;23.292;2023-04-19T00:06:28;68787.05;;;11.35;100.00
22930;BME280;11630;42.660;23.292;2023-04-19T00:08:59;68795.77;;;11.43;100.00
22930;BME280;11630;42.660;23.292;2023-04-19T00:11:30;68790.86;;;11.39;100.00
22930;BME280;11630;42.660;23.292;2023-04-19T00:14:01;68794.41;;;11.43;100.00
22930;BME280;11630;42.660;23.292;2023-04-19T00:16:32;68790.33;;;11.43;100.00
22930;BME280;11630;42.660;23.292;2023-04-19T00:19:03;68800.67;;;11.48;100.00
22930;BME280;11630;42.660;23.292;2023-04-19T00:21:34;68775.09;;;11.24;100.00
22930;BME280;11630;42.660;23.292;2023-04-19T00:24:04;68751.68;;;11.05;100.00
22930;BME280;11630;42.660;23.292;2023-04-19T00:26:35;68768.81;;;11.15;100.00
22930;BME280;11630;42.660;23.292;2023-04-19T00:29:06;68782.70;;;11.31;100.00
22930;BME280;11630;42.660;23.292;2023-04-19T00:31:38;68777.54;;;11.28;100.00
22930;BME280;11630;42.660;23.292;2023-04-19T00:34:09;68809.91;;;11.51;100.00
22930;BME280;11630;42.660;23.292;2023-04-19T00:36:39;68795.77;;;11.46;100.00
22930;BME280;11630;42.660;23.292;2023-04-19T00:39:10;68799.31;;;11.48;100.00
22930;BME280;11630;42.660;23.292;2023-04-19T00:41:41;68786.52;;;11.37;100.00
22930;BME280;11630;42.660;23.292;2023-04-19T00:44:13;68759.85;;;11.13;100.00
22930;BME280;11630;42.660;23.292;2023-04-19T00:46:43;68740.79;;;10.95;100.00
22930;BME280;11630;42.660;23.292;2023-04-19T00:49:15;68731.02;;;10.86;100.00
22930;BME280;11630;42.660;23.292;2023-04-19T00:51:47;68735.63;;;10.89;100.00
22930;BME280;11630;42.660;23.292;2023-04-19T00:54:19;68737.80;;;10.91;100.00
22930;BME280;11630;42.660;23.292;2023-04-19T00:56:50;68723.93;;;10.77;100.00
22930;BME280;11630;42.660;23.292;2023-04-19T00:59:21;68701.35;;;10.56;100.00
22930;BME280;11630;42.660;23.292;2023-04-19T01:01:52;68690.20;;;10.47;100.00
22930;BME280;11630;42.660;23.292;2023-04-19T01:04:22;68684.20;;;10.41;100.00
22930;BME280;11630;42.660;23.292;2023-04-19T01:06:54;68669.25;;;10.29;100.00
22930;BME280;11630;42.660;23.292;2023-04-19T01:09:30;68661.66;;;10.24;100.00
22930;BME280;11630;42.660;23.292;2023-04-19T01:12:01;68661.94;;;10.26;100.00
22930;BME280;11630;42.660;23.292;2023-04-19T01:14:32;68666.83;;;10.28;100.00
22930;BME280;11630;42.660;23.292;2023-04-19T01:17:07;68671.70;;;10.30;100.00
22930;BME280;11630;42.660;23.292;2023-04-19T01:19:38;68663.00;;;10.22;100.00
22930;BME280;11630;42.660;23.292;2023-04-19T01:22:08;68661.64;;;10.22;100.00
22930;BME280;11630;42.660;23.292;2023-04-19T01:24:39;68654.59;;;10.15;100.00
22930;BME280;11630;42.660;23.292;2023-04-19T01:27:10;68661.11;;;10.24;100.00
22930;BME280;11630;42.660;23.292;2023-04-19T01:29:42;68667.36;;;10.23;100.00
22930;BME280;11630;42.660;23.292;2023-04-19T01:32:13;68676.86;;;10.31;100.00
22930;BME280;11630;42.660;23.292;2023-04-19T01:34:44;68657.59;;;10.24;100.00
22930;BME280;11630;42.660;23.292;2023-04-19T01:37:14;68659.22;;;10.21;100.00
22930;BME280;11630;42.660;23.292;2023-04-19T01:39:45;68653.23;;;10.18;100.00
22930;BME280;11630;42.660;23.292;2023-04-19T01:42:16;68649.16;;;10.13;100.00
22930;BME280;11630;42.660;23.292;2023-04-19T01:44:46;68664.36;;;10.22;100.00
22930;BME280;11630;42.660;23.292;2023-04-19T01:47:22;68671.16;;;10.27;100.00
22930;BME280;11630;42.660;23.292;2023-04-19T01:49:53;68655.94;;;10.15;100.00
22930;BME280;11630;42.660;23.292;2023-04-19T01:52:24;68657.30;;;10.13;100.00
22930;BME280;11630;42.660;23.292;2023-04-19T01:54:55;68649.69;;;10.08;100.00
22930;BME280;11630;42.660;23.292;2023-04-19T01:57:25;68644.52;;;10.05;100.00
22930;BME280;11630;42.660;23.292;2023-04-19T01:59:56;68626.84;;;9.90;100.00
22930;BME280;11630;42.660;23.292;2023-04-19T02:02:26;68638.48;;;9.92;100.00
22930;BME280;11630;42.660;23.292;2023-04-19T02:04:58;68640.19;;;10.06;100.00
22930;BME280;11630;42.660;23.292;2023-04-19T02:07:28;68664.09;;;10.25;100.00
22930;BME280;11630;42.660;23.292;2023-04-19T02:09:58;68664.09;;;10.23;100.00
22930;BME280;11630;42.660;23.292;2023-04-19T02:12:29;68676.59;;;10.32;100.00
22930;BME280;11630;42.660;23.292;2023-04-19T02:15:01;68666.83;;;10.28;100.00
22930;BME280;11630;42.660;23.292;2023-04-19T02:17:32;68647.52;;;10.11;100.00
22930;BME280;11630;42.660;23.292;2023-04-19T02:20:04;68668.45;;;10.29;100.00
22930;BME280;11630;42.660;23.292;2023-04-19T02:22:35;68681.49;;;10.36;100.00
22930;BME280;11630;42.660;23.292;2023-04-19T02:25:06;68627.38;;;9.91;100.00
22930;BME280;11630;42.660;23.292;2023-04-19T02:27:37;68633.63;;;9.93;100.00
22930;BME280;11630;42.660;23.292;2023-04-19T02:30:09;68636.36;;;9.97;100.00
22930;BME280;11630;42.660;23.292;2023-04-19T02:32:40;68632.84;;;9.98;100.00
22930;BME280;11630;42.660;23.292;2023-04-19T02:35:12;68632.53;;;9.96;100.00
22930;BME280;11630;42.660;23.292;2023-04-19T02:37:44;68626.01;;;9.86;100.00
22930;BME280;11630;42.660;23.292;2023-04-19T02:40:15;68623.03;;;9.84;100.00
22930;BME280;11630;42.660;23.292;2023-04-19T02:42:45;68613.77;;;9.73;100.00
22930;BME280;11630;42.660;23.292;2023-04-19T02:45:16;68610.53;;;9.75;100.00
22930;BME280;11630;42.660;23.292;2023-04-19T02:47:47;68597.77;;;9.65;100.00
22930;BME280;11630;42.660;23.292;2023-04-19T02:50:18;68591.48;;;9.55;100.00
22930;BME280;11630;42.660;23.292;2023-04-19T02:52:50;68593.13;;;9.59;100.00
22930;BME280;11630;42.660;23.292;2023-04-19T02:55:21;68595.31;;;9.61;100.00
22930;BME280;11630;42.660;23.292;2023-04-19T02:57:51;68590.95;;;9.57;100.00
22930;BME280;11630;42.660;23.292;2023-04-19T03:00:22;68603.98;;;9.67;100.00
22930;BME280;11630;42.660;23.292;2023-04-19T03:02:53;68616.75;;;9.75;100.00
22930;BME280;11630;42.660;23.292;2023-04-19T03:05:25;68633.09;;;9.97;100.00
22930;BME280;11630;42.660;23.292;2023-04-19T03:07:57;68627.64;;;9.92;100.00
22930;BME280;11630;42.660;23.292;2023-04-19T03:10:28;68624.66;;;9.88;100.00
22930;BME280;11630;42.660;23.292;2023-04-19T03:12:59;68624.36;;;9.79;100.00
22930;BME280;11630;42.660;23.292;2023-04-19T03:15:30;68628.98;;;9.87;100.00
22930;BME280;11630;42.660;23.292;2023-04-19T03:18:00;68614.60;;;9.80;100.00
22930;BME280;11630;42.660;23.292;2023-04-19T03:20:31;68595.31;;;9.64;100.00
22930;BME280;11630;42.660;23.292;2023-04-19T03:23:03;68598.56;;;9.64;100.00
22930;BME280;11630;42.660;23.292;2023-04-19T03:25:33;68590.95;;;9.52;100.00
22930;BME280;11630;42.660;23.292;2023-04-19T03:28:03;68599.91;;;9.64;100.00
22930;BME280;11630;42.660;23.292;2023-04-19T03:30:34;68598.30;;;9.65;100.00
22930;BME280;11630;42.660;23.292;2023-04-19T03:33:04;68593.13;;;9.59;100.00
22930;BME280;11630;42.660;23.292;2023-04-19T03:35:35;68589.06;;;9.59;100.00
22930;BME280;11630;42.660;23.292;2023-04-19T03:38:06;68596.12;;;9.63;100.00
22930;BME280;11630;42.660;23.292;2023-04-19T03:40:38;68602.92;;;9.68;100.00
22930;BME280;11630;42.660;23.292;2023-04-19T03:43:09;68600.47;;;9.65;100.00
22930;BME280;11630;42.660;23.292;2023-04-19T03:45:40;68582.81;;;9.47;100.00
22930;BME280;11630;42.660;23.292;2023-04-19T03:48:11;68582.55;;;9.51;100.00
22930;BME280;11630;42.660;23.292;2023-04-19T03:50:41;68587.70;;;9.54;100.00
22930;BME280;11630;42.660;23.292;2023-04-19T03:53:12;68580.08;;;9.45;100.00
22930;BME280;11630;42.660;23.292;2023-04-19T03:55:43;68569.22;;;9.37;100.00
22930;BME280;11630;42.660;23.292;2023-04-19T03:58:14;68573.02;;;9.36;100.00
22930;BME280;11630;42.660;23.292;2023-04-19T04:00:45;68570.84;;;9.39;100.00
22930;BME280;11630;42.660;23.292;2023-04-19T04:03:16;68566.22;;;9.33;100.00
22930;BME280;11630;42.660;23.292;2023-04-19T04:05:47;68560.53;;;9.29;100.00
22930;BME280;11630;42.660;23.292;2023-04-19T04:08:17;68574.95;;;9.46;100.00
22930;BME280;11630;42.660;23.292;2023-04-19T04:10:48;68568.14;;;9.41;100.00
22930;BME280;11630;42.660;23.292;2023-04-19T04:13:21;68571.12;;;9.40;100.00
22930;BME280;11630;42.660;23.292;2023-04-19T04:15:50;68576.00;;;9.42;100.00
22930;BME280;11630;42.660;23.292;2023-04-19T04:18:21;68595.03;;;9.62;100.00
22930;BME280;11630;42.660;23.292;2023-04-19T04:20:52;68598.56;;;9.64;100.00
22930;BME280;11630;42.660;23.292;2023-04-19T04:23:24;68592.05;;;9.61;100.00
22930;BME280;11630;42.660;23.292;2023-04-19T04:25:59;68589.59;;;9.52;100.00
22930;BME280;11630;42.660;23.292;2023-04-19T04:28:30;68605.37;;;9.69;100.00
22930;BME280;11630;42.660;23.292;2023-04-19T04:31:00;68636.63;;;9.99;100.00
22930;BME280;11630;42.660;23.292;2023-04-19T04:33:30;68649.16;;;10.13;100.00
22930;BME280;11630;42.660;23.292;2023-04-19T04:36:01;68664.11;;;10.28;100.00
22930;BME280;11630;42.660;23.292;2023-04-19T04:38:32;68674.15;;;10.33;100.00
22930;BME280;11630;42.660;23.292;2023-04-19T04:41:03;68646.71;;;10.12;100.00
22930;BME280;11630;42.660;23.292;2023-04-19T04:43:37;68628.19;;;9.90;100.00
22930;BME280;11630;42.660;23.292;2023-04-19T04:46:07;68679.05;;;10.33;100.00
22930;BME280;11630;42.660;23.292;2023-04-19T04:48:40;68648.34;;;10.13;100.00
22930;BME280;11630;42.660;23.292;2023-04-19T04:51:11;68632.00;;;9.93;100.00
22930;BME280;11630;42.660;23.292;2023-04-19T04:53:42;68609.44;;;9.74;100.00
22930;BME280;11630;42.660;23.292;2023-04-19T04:56:12;68604.02;;;9.69;100.00
22930;BME280;11630;42.660;23.292;2023-04-19T04:58:43;68591.22;;;9.56;100.00
22930;BME280;11630;42.660;23.292;2023-04-19T05:01:14;68585.80;;;9.51;100.00
22930;BME280;11630;42.660;23.292;2023-04-19T05:03:46;68583.34;;;9.48;100.00
22930;BME280;11630;42.660;23.292;2023-04-19T05:06:16;68580.37;;;9.49;100.00
22930;BME280;11630;42.660;23.292;2023-04-19T05:08:47;68585.53;;;9.55;100.00
22930;BME280;11630;42.660;23.292;2023-04-19T05:11:19;68591.75;;;9.52;100.00
22930;BME280;11630;42.660;23.292;2023-04-19T05:13:50;68580.91;;;9.49;100.00
22930;BME280;11630;42.660;23.292;2023-04-19T05:16:20;68590.95;;;9.60;100.00
22930;BME280;11630;42.660;23.292;2023-04-19T05:18:51;68598.85;;;9.66;100.00
22930;BME280;11630;42.660;23.292;2023-04-19T05:21:21;68602.92;;;9.68;100.00
22930;BME280;11630;42.660;23.292;2023-04-19T05:23:51;68601.01;;;9.65;100.00
22930;BME280;11630;42.660;23.292;2023-04-19T05:26:22;68605.34;;;9.67;100.00
22930;BME280;11630;42.660;23.292;2023-04-19T05:28:53;68593.95;;;9.61;100.00
22930;BME280;11630;42.660;23.292;2023-04-19T05:31:25;68611.06;;;9.78;100.00
22930;BME280;11630;42.660;23.292;2023-04-19T05:33:55;68605.91;;;9.72;100.00
22930;BME280;11630;42.660;23.292;2023-04-19T05:36:26;68610.50;;;9.70;100.00
22930;BME280;11630;42.660;23.292;2023-04-19T05:38:57;68609.17;;;9.75;100.00
22930;BME280;11630;42.660;23.292;2023-04-19T05:41:28;68617.58;;;9.77;100.00
22930;BME280;11630;42.660;23.292;2023-04-19T05:43:59;68593.95;;;9.61;100.00
22930;BME280;11630;42.660;23.292;2023-04-19T05:46:30;68591.22;;;9.59;100.00
22930;BME280;11630;42.660;23.292;2023-04-19T05:49:01;68596.67;;;9.64;100.00
22930;BME280;11630;42.660;23.292;2023-04-19T05:51:31;68577.39;;;9.50;100.00
22930;BME280;11630;42.660;23.292;2023-04-19T05:54:02;68615.70;;;9.84;100.00
22930;BME280;11630;42.660;23.292;2023-04-19T05:56:33;68611.89;;;9.78;100.00
22930;BME280;11630;42.660;23.292;2023-04-19T05:59:04;68616.25;;;9.84;100.00
22930;BME280;11630;42.660;23.292;2023-04-19T06:01:35;68619.23;;;9.83;100.00
22930;BME280;11630;42.660;23.292;2023-04-19T06:04:06;68596.14;;;9.66;100.00
22930;BME280;11630;42.660;23.292;2023-04-19T06:06:37;68639.63;;;9.98;100.00
22930;BME280;11630;42.660;23.292;2023-04-19T06:09:08;68654.58;;;10.13;100.00
22930;BME280;11630;42.660;23.292;2023-04-19T06:11:40;68679.34;;;10.42;100.00
22930;BME280;11630;42.660;23.292;2023-04-19T06:14:11;68665.71;;;10.22;100.00
22930;BME280;11630;42.660;23.292;2023-04-19T06:16:44;68676.86;;;10.31;100.00
22930;BME280;11630;42.660;23.292;2023-04-19T06:19:15;68647.24;;;10.10;100.00
22930;BME280;11630;42.660;23.292;2023-04-19T06:21:46;68644.79;;;10.04;100.00
22930;BME280;11630;42.660;23.292;2023-04-19T06:24:16;68637.45;;;10.01;100.00
22930;BME280;11630;42.660;23.292;2023-04-19T06:26:47;68668.45;;;10.27;100.00
22930;BME280;11630;42.660;23.292;2023-04-19T06:29:18;68674.70;;;10.34;100.00
22930;BME280;11630;42.660;23.292;2023-04-19T06:31:49;68667.89;;;10.26;100.00
22930;BME280;11630;42.660;23.292;2023-04-19T06:34:20;68658.66;;;10.23;100.00
22930;BME280;11630;42.660;23.292;2023-04-19T06:36:51;68661.64;;;10.22;100.00
22930;BME280;11630;42.660;23.292;2023-04-19T06:39:22;68672.26;;;10.30;100.00
22930;BME280;11630;42.660;23.292;2023-04-19T06:41:53;68704.34;;;10.60;100.00
22930;BME280;11630;42.660;23.292;2023-04-19T06:44:24;68729.09;;;10.83;100.00
22930;BME280;11630;42.660;23.292;2023-04-19T06:46:55;68737.27;;;10.93;100.00
22930;BME280;11630;42.660;23.292;2023-04-19T06:49:25;68762.02;;;11.15;100.00
22930;BME280;11630;42.660;23.292;2023-04-19T06:51:58;68748.41;;;11.02;100.00
22930;BME280;11630;42.660;23.292;2023-04-19T06:54:28;68713.87;;;10.72;100.00
22930;BME280;11630;42.660;23.292;2023-04-19T06:56:59;68712.77;;;10.64;100.00
22930;BME280;11630;42.660;23.292;2023-04-19T06:59:31;68727.73;;;10.83;100.00
22930;BME280;11630;42.660;23.292;2023-04-19T07:02:01;68727.73;;;10.76;100.00
22930;BME280;11630;42.660;23.292;2023-04-19T07:04:32;68722.84;;;10.79;100.00
22930;BME280;11630;42.660;23.292;2023-04-19T07:07:02;68743.50;;;10.95;100.00
22930;BME280;11630;42.660;23.292;2023-04-19T07:09:33;68782.42;;;11.27;100.00
22930;BME280;11630;42.660;23.292;2023-04-19T07:12:04;68808.84;;;11.57;100.00
22930;BME280;11630;42.660;23.292;2023-04-19T07:14:37;68823.81;;;11.72;100.00
22930;BME280;11630;42.660;23.292;2023-04-19T07:17:09;68848.06;;;11.96;100.00
22930;BME280;11630;42.660;23.292;2023-04-19T07:19:39;68835.54;;;11.82;100.00
22930;BME280;11630;42.660;23.292;2023-04-19T07:22:10;68853.77;;;11.95;100.00
22930;BME280;11630;42.660;23.292;2023-04-19T07:24:41;68859.22;;;12.00;100.00
22930;BME280;11630;42.660;23.292;2023-04-19T07:27:11;68830.08;;;11.77;100.00
22930;BME280;11630;42.660;23.292;2023-04-19T07:29:41;68808.86;;;11.60;100.00
22930;BME280;11630;42.660;23.292;2023-04-19T07:32:12;68816.20;;;11.63;100.00
22930;BME280;11630;42.660;23.292;2023-04-19T07:34:43;68792.48;;;11.40;100.00
22930;BME280;11630;42.660;23.292;2023-04-19T07:37:14;68770.19;;;11.22;100.00
22930;BME280;11630;42.660;23.292;2023-04-19T07:39:47;68771.02;;;11.24;100.00
22930;BME280;11630;42.660;23.292;2023-04-19T07:42:18;68789.77;;;11.35;100.00
22930;BME280;11630;42.660;23.292;2023-04-19T07:44:50;68784.88;;;11.33;100.00
22930;BME280;11630;42.660;23.292;2023-04-19T07:47:21;68800.11;;;11.42;100.00
22930;BME280;11630;42.660;23.292;2023-04-19T07:49:53;68808.55;;;11.51;100.00
22930;BME280;11630;42.660;23.292;2023-04-19T07:52:25;68811.03;;;11.54;100.00
22930;BME280;11630;42.660;23.292;2023-04-19T07:54:56;68830.62;;;11.67;100.00
22930;BME280;11630;42.660;23.292;2023-04-19T07:57:26;68828.19;;;11.71;100.00
22930;BME280;11630;42.660;23.292;2023-04-19T07:59:57;68814.56;;;11.64;100.00
22930;BME280;11630;42.660;23.292;2023-04-19T08:02:28;68849.96;;;11.94;100.00
22930;BME280;11630;42.660;23.292;2023-04-19T08:04:59;68857.86;;;12.00;100.00
22930;BME280;11630;42.660;23.292;2023-04-19T08:07:30;68843.44;;;11.83;100.00
22930;BME280;11630;42.660;23.292;2023-04-19T08:10:00;68849.41;;;11.91;100.00
22930;BME280;11630;42.660;23.292;2023-04-19T08:12:31;68862.49;;;12.00;100.00
22930;BME280;11630;42.660;23.292;2023-04-19T08:15:04;68876.94;;;12.20;100.00
22930;BME280;11630;42.660;23.292;2023-04-19T08:17:35;68860.59;;;12.05;100.00
22930;BME280;11630;42.660;23.292;2023-04-19T08:20:09;68853.23;;;11.99;100.00
22930;BME280;11630;42.660;23.292;2023-04-19T08:22:41;68858.41;;;12.00;100.00
22930;BME280;11630;42.660;23.292;2023-04-19T08:25:12;68837.70;;;11.84;100.00
22930;BME280;11630;42.660;23.292;2023-04-19T08:27:43;68854.59;;;11.97;100.00
22930;BME280;11630;42.660;23.292;2023-04-19T08:30:17;68896.80;;;12.31;100.00
22930;BME280;11630;42.660;23.292;2023-04-19T08:32:47;68843.97;;;11.86;100.00
22930;BME280;11630;42.660;23.292;2023-04-19T08:35:17;68818.38;;;11.67;100.00
22930;BME280;11630;42.660;23.292;2023-04-19T08:37:48;68834.16;;;11.77;100.00
22930;BME280;11630;42.660;23.292;2023-04-19T08:40:18;68857.05;;;12.03;100.00
22930;BME280;11630;42.660;23.292;2023-04-19T08:42:48;68884.00;;;12.24;100.00
22930;BME280;11630;42.660;23.292;2023-04-19T08:45:19;68878.30;;;12.20;100.00
22930;BME280;11630;42.660;23.292;2023-04-19T08:47:49;68879.10;;;12.17;100.00
22930;BME280;11630;42.660;23.292;2023-04-19T08:50:21;68847.52;;;11.93;100.00
22930;BME280;11630;42.660;23.292;2023-04-19T08:52:51;68851.05;;;11.97;100.00
22930;BME280;11630;42.660;23.292;2023-04-19T08:55:22;68864.94;;;12.09;100.00
22930;BME280;11630;42.660;23.292;2023-04-19T08:57:52;68873.39;;;12.13;100.00
22930;BME280;11630;42.660;23.292;2023-04-19T09:00:23;68935.23;;;12.70;100.00
22930;BME280;11630;42.660;23.292;2023-04-19T09:02:54;68924.88;;;12.63;100.00
22930;BME280;11630;42.660;23.292;2023-04-19T09:05:25;68922.96;;;12.60;100.00
22930;BME280;11630;42.660;23.292;2023-04-19T09:08:09;68960.59;;;12.97;100.00
22930;BME280;11630;42.660;23.292;2023-04-19T09:10:27;68984.59;;;13.11;100.00
22930;BME280;11630;42.660;23.292;2023-04-19T09:13:03;68943.39;;;12.80;100.00
22930;BME280;11630;42.660;23.292;2023-04-19T09:15:41;68982.39;;;13.12;100.00
22930;BME280;11630;42.660;23.292;2023-04-19T09:18:12;68954.32;;;12.90;100.00
22930;BME280;11630;42.660;23.292;2023-04-19T09:20:45;68960.33;;;12.93;100.00
22930;BME280;11630;42.660;23.292;2023-04-19T09:23:17;68967.13;;;13.03;100.00
22930;BME280;11630;42.660;23.292;2023-04-19T09:25:59;69029.28;;;13.55;100.00
22930;BME280;11630;42.660;23.292;2023-04-19T09:28:30;69063.92;;;13.82;100.00
22930;BME280;11630;42.660;23.292;2023-04-19T09:31:10;69057.66;;;13.83;100.00
22930;BME280;11630;42.660;23.292;2023-04-19T09:33:41;69138.16;;;14.50;99.46
22930;BME280;11630;42.660;23.292;2023-04-19T09:36:25;69146.61;;;14.64;98.70
22930;BME280;11630;42.660;23.292;2023-04-19T09:38:48;69178.59;;;14.79;95.56
22930;BME280;11630;42.660;23.292;2023-04-19T09:41:19;69131.09;;;14.41;94.68
22930;BME280;11630;42.660;23.292;2023-04-19T09:43:50;69096.41;;;14.21;96.24
22930;BME280;11630;42.660;23.292;2023-04-19T09:46:34;69118.53;;;14.30;96.35
22930;BME280;11630;42.660;23.292;2023-04-19T09:49:16;69119.05;;;14.35;94.36
22930;BME280;11630;42.660;23.292;2023-04-19T09:51:52;69194.95;;;15.02;91.80
22930;BME280;11630;42.660;23.292;2023-04-19T09:54:24;69231.03;;;15.32;88.62
22930;BME280;11630;42.660;23.292;2023-04-19T09:56:55;69300.97;;;15.96;84.75
22930;BME280;11630;42.660;23.292;2023-04-19T09:59:26;69249.88;;;15.50;83.99
22930;BME280;11630;42.660;23.292;2023-04-19T10:01:58;69238.13;;;15.46;85.19
22930;BME280;11630;42.660;23.292;2023-04-19T10:04:33;69133.78;;;14.54;89.55
22930;BME280;11630;42.660;23.292;2023-04-19T10:07:03;69178.83;;;14.96;89.34
22930;BME280;11630;42.660;23.292;2023-04-19T10:09:35;69305.63;;;16.01;85.56
22930;BME280;11630;42.660;23.292;2023-04-19T10:12:05;69254.50;;;15.63;83.01
22930;BME280;11630;42.660;23.292;2023-04-19T10:14:37;69367.94;;;16.63;78.71
22930;BME280;11630;42.660;23.292;2023-04-19T10:17:08;69366.02;;;16.70;73.82
22930;BME280;11630;42.660;23.292;2023-04-19T10:19:40;69432.50;;;17.16;71.55
22930;BME280;11630;42.660;23.292;2023-04-19T10:22:12;69439.64;;;17.20;69.63
22930;BME280;11630;42.660;23.292;2023-04-19T10:27:33;69435.52;;;17.20;68.61
22930;BME280;11630;42.660;23.292;2023-04-19T10:30:04;69406.20;;;17.02;72.23
22930;BME280;11630;42.660;23.292;2023-04-19T10:32:40;69354.84;;;16.46;75.87
22930;BME280;11630;42.660;23.292;2023-04-19T10:35:18;69391.20;;;16.78;75.96
22930;BME280;11630;42.660;23.292;2023-04-19T10:40:53;69535.41;;;18.15;67.12
22930;BME280;11630;42.660;23.292;2023-04-19T10:43:28;69463.13;;;17.54;67.68
22930;BME280;11630;42.660;23.292;2023-04-19T10:46:15;69403.22;;;16.93;67.30
22930;BME280;11630;42.660;23.292;2023-04-19T10:51:32;69584.48;;;18.51;64.31
22930;BME280;11630;42.660;23.292;2023-04-19T10:57:07;69569.91;;;18.49;59.70
22930;BME280;11630;42.660;23.292;2023-04-19T10:59:39;69573.23;;;18.47;61.93
22930;BME280;11630;42.660;23.292;2023-04-19T11:02:28;69441.28;;;17.19;65.99
22930;BME280;11630;42.660;23.292;2023-04-19T11:04:59;69422.08;;;17.14;64.03
22930;BME280;11630;42.660;23.292;2023-04-19T11:07:35;69534.34;;;18.04;63.42
22930;BME280;11630;42.660;23.292;2023-04-19T11:10:04;69558.95;;;18.41;61.12
22930;BME280;11630;42.660;23.292;2023-04-19T11:12:35;69587.41;;;18.67;58.48
22930;BME280;11630;42.660;23.292;2023-04-19T11:15:08;69566.12;;;18.38;59.74
22930;BME280;11630;42.660;23.292;2023-04-19T11:17:39;69599.86;;;18.57;57.68
22930;BME280;11630;42.660;23.292;2023-04-19T11:20:10;69575.69;;;18.50;56.39
22930;BME280;11630;42.660;23.292;2023-04-19T11:22:43;69522.83;;;18.01;59.26
22930;BME280;11630;42.660;23.292;2023-04-19T11:25:23;69481.22;;;17.63;60.36
22930;BME280;11630;42.660;23.292;2023-04-19T11:27:51;69585.53;;;18.61;61.60
22930;BME280;11630;42.660;23.292;2023-04-19T11:30:28;69576.81;;;18.44;57.62
22930;BME280;11630;42.660;23.292;2023-04-19T11:32:59;69609.13;;;18.70;57.00
22930;BME280;11630;42.660;23.292;2023-04-19T11:35:30;69600.05;;;18.73;57.72
22930;BME280;11630;42.660;23.292;2023-04-19T11:38:01;69569.38;;;18.46;53.54
22930;BME280;11630;42.660;23.292;2023-04-19T11:40:36;69548.58;;;18.19;55.76
22930;BME280;11630;42.660;23.292;2023-04-19T11:43:08;69583.36;;;18.52;56.09
22930;BME280;11630;42.660;23.292;2023-04-19T11:45:39;69511.33;;;17.88;56.95
22930;BME280;11630;42.660;23.292;2023-04-19T11:48:15;69515.42;;;17.95;57.59
22930;BME280;11630;42.660;23.292;2023-04-19T11:50:46;69574.30;;;18.53;55.87
22930;BME280;11630;42.660;23.292;2023-04-19T11:53:24;69608.03;;;18.69;53.03
22930;BME280;11630;42.660;23.292;2023-04-19T11:55:57;69577.02;;;18.57;51.64
22930;BME280;11630;42.660;23.292;2023-04-19T11:58:36;69658.41;;;19.28;50.31
22930;BME280;11630;42.660;23.292;2023-04-19T12:01:15;69663.94;;;19.25;49.79
22930;BME280;11630;42.660;23.292;2023-04-19T12:03:53;69461.52;;;17.45;54.81
22930;BME280;11630;42.660;23.292;2023-04-19T12:06:26;69631.27;;;19.04;51.68
22930;BME280;11630;42.660;23.292;2023-04-19T12:08:58;69719.81;;;19.81;51.11
22930;BME280;11630;42.660;23.292;2023-04-19T12:11:41;69694.85;;;19.62;49.53
22930;BME280;11630;42.660;23.292;2023-04-19T12:14:15;69664.66;;;19.39;48.34
22930;BME280;11630;42.660;23.292;2023-04-19T12:16:45;69466.70;;;17.51;53.11
22930;BME280;11630;42.660;23.292;2023-04-19T12:19:19;69492.17;;;17.73;54.43
22930;BME280;11630;42.660;23.292;2023-04-19T12:21:50;69485.88;;;17.69;53.99
22930;BME280;11630;42.660;23.292;2023-04-19T12:24:21;69535.14;;;18.11;52.73
22930;BME280;11630;42.660;23.292;2023-04-19T12:26:56;69518.98;;;18.00;55.30
22930;BME280;11630;42.660;23.292;2023-04-19T12:29:27;69463.39;;;17.56;56.07
22930;BME280;11630;42.660;23.292;2023-04-19T12:31:58;69517.31;;;18.03;52.53
22930;BME280;11630;42.660;23.292;2023-04-19T12:34:29;69578.70;;;18.52;51.33
22930;BME280;11630;42.660;23.292;2023-04-19T12:36:59;69594.00;;;18.70;48.21
22930;BME280;11630;42.660;23.292;2023-04-19T12:39:29;69549.12;;;18.27;50.07
22930;BME280;11630;42.660;23.292;2023-04-19T12:41:59;69500.36;;;17.83;50.84
22930;BME280;11630;42.660;23.292;2023-04-19T12:44:30;69540.91;;;18.15;51.83
22930;BME280;11630;42.660;23.292;2023-04-19T12:47:01;69478.20;;;17.64;54.37
22930;BME280;11630;42.660;23.292;2023-04-19T12:49:32;69563.67;;;18.32;52.97
22930;BME280;11630;42.660;23.292;2023-04-19T12:52:05;69618.41;;;18.86;51.95
22930;BME280;11630;42.660;23.292;2023-04-19T12:54:35;69540.06;;;18.15;53.80
22930;BME280;11630;42.660;23.292;2023-04-19T12:57:05;69496.02;;;17.72;55.00
22930;BME280;11630;42.660;23.292;2023-04-19T12:59:36;69553.20;;;18.35;52.88
22930;BME280;11630;42.660;23.292;2023-04-19T13:02:07;69563.89;;;18.43;52.29
22930;BME280;11630;42.660;23.292;2023-04-19T13:04:39;69609.09;;;18.80;51.68
22930;BME280;11630;42.660;23.292;2023-04-19T13:07:10;69618.12;;;18.90;51.74
22930;BME280;11630;42.660;23.292;2023-04-19T13:09:41;69596.21;;;18.70;52.26
22930;BME280;11630;42.660;23.292;2023-04-19T13:12:11;69513.50;;;17.97;55.18
22930;BME280;11630;42.660;23.292;2023-04-19T13:14:41;69406.50;;;16.99;61.70
22930;BME280;11630;42.660;23.292;2023-04-19T13:17:12;69373.39;;;16.73;64.62
22930;BME280;11630;42.660;23.292;2023-04-19T13:19:43;69338.11;;;16.44;69.50